createdAt,value
2018-12-10T00:02:23.460Z,5.05
2018-12-10T00:04:53.303Z,5.03
2018-12-10T00:07:22.409Z,4.95
2018-12-10T00:09:50.650Z,4.93
2018-12-10T00:12:19.659Z,4.87
2018-12-10T00:14:48.406Z,4.99
2018-12-10T00:17:16.396Z,4.95
2018-12-10T00:19:46.247Z,4.89
2018-12-10T00:22:15.185Z,4.87
2018-12-10T00:24:44.996Z,4.87
2018-12-10T00:27:14.174Z,4.75
2018-12-10T00:29:41.755Z,4.72
2018-12-10T00:32:11.359Z,4.76
2018-12-10T00:34:39.049Z,4.75
2018-12-10T00:37:07.232Z,4.87
2018-12-10T00:39:36.281Z,4.94
2018-12-10T00:42:04.348Z,4.83
2018-12-10T00:44:35.502Z,4.80
2018-12-10T00:47:04.866Z,4.81
2018-12-10T00:49:33.453Z,4.83
2018-12-10T00:52:03.971Z,4.69
2018-12-10T00:54:32.877Z,4.62
2018-12-10T00:57:01.263Z,4.56
2018-12-10T00:59:30.744Z,4.52
2018-12-10T01:01:59.575Z,4.49
2018-12-10T01:04:27.302Z,4.49
2018-12-10T01:06:55.017Z,4.41
2018-12-10T01:09:23.209Z,4.35
2018-12-10T01:11:50.937Z,4.36
2018-12-10T01:14:18.885Z,4.18
2018-12-10T01:16:47.575Z,4.23
2018-12-10T01:19:15.635Z,4.19
2018-12-10T01:21:44.156Z,4.21
2018-12-10T01:24:12.344Z,4.16
2018-12-10T01:26:41.018Z,4.24
2018-12-10T01:29:10.194Z,4.26
2018-12-10T01:31:37.881Z,4.28
2018-12-10T01:34:07.221Z,4.30
2018-12-10T01:36:35.048Z,4.25
2018-12-10T01:39:04.577Z,4.30
2018-12-10T01:41:32.091Z,4.36
2018-12-10T01:44:01.279Z,4.40
2018-12-10T01:46:29.409Z,4.38
2018-12-10T01:48:57.661Z,4.34
2018-12-10T01:51:27.169Z,4.36
2018-12-10T01:53:57.036Z,4.41
2018-12-10T01:56:24.930Z,4.40
2018-12-10T01:58:52.684Z,4.32
2018-12-10T02:01:23.768Z,4.26
2018-12-10T02:03:52.460Z,4.25
2018-12-10T02:06:21.659Z,4.27
2018-12-10T02:08:49.602Z,4.29
2018-12-10T02:11:19.160Z,4.37
2018-12-10T02:13:47.134Z,4.26
2018-12-10T02:16:17.370Z,4.23
2018-12-10T02:18:46.210Z,4.27
2018-12-10T02:21:14.488Z,4.33
2018-12-10T02:23:43.446Z,4.36
2018-12-10T02:26:10.992Z,4.34
2018-12-10T02:28:46.588Z,4.33
2018-12-10T02:31:14.319Z,4.45
2018-12-10T02:33:41.895Z,4.48
2018-12-10T02:36:09.447Z,4.49
2018-12-10T02:38:37.018Z,4.54
2018-12-10T02:41:04.654Z,4.51
2018-12-10T02:43:32.199Z,4.44
2018-12-10T02:45:59.850Z,4.43
2018-12-10T02:48:27.412Z,4.39
2018-12-10T02:50:54.915Z,4.38
2018-12-10T02:53:22.461Z,4.35
2018-12-10T02:55:50.151Z,4.38
2018-12-10T02:58:17.709Z,4.30
2018-12-10T03:00:45.283Z,4.29
2018-12-10T03:03:12.811Z,4.13
2018-12-10T03:05:40.353Z,4.22
2018-12-10T03:08:07.889Z,4.26
2018-12-10T03:10:35.677Z,4.14
2018-12-10T03:13:03.208Z,4.24
2018-12-10T03:15:30.758Z,4.13
2018-12-10T03:17:58.290Z,4.14
2018-12-10T03:20:25.852Z,4.16
2018-12-10T03:22:53.397Z,4.05
2018-12-10T03:25:20.956Z,4.07
2018-12-10T03:27:48.522Z,4.05
2018-12-10T03:30:16.086Z,4.12
2018-12-10T03:32:43.688Z,4.13
2018-12-10T03:35:11.248Z,3.98
2018-12-10T03:37:38.783Z,4.00
2018-12-10T03:40:06.360Z,4.03
2018-12-10T03:42:33.894Z,3.97
2018-12-10T03:45:01.474Z,3.95
2018-12-10T03:47:28.987Z,4.04
2018-12-10T03:49:56.667Z,3.98
2018-12-10T03:52:24.221Z,4.13
2018-12-10T03:54:51.786Z,4.06
2018-12-10T03:57:19.426Z,3.99
2018-12-10T03:59:47.078Z,3.99
2018-12-10T04:02:14.622Z,3.99
2018-12-10T04:04:42.176Z,4.00
2018-12-10T04:07:09.916Z,3.95
2018-12-10T04:09:37.509Z,3.97
2018-12-10T04:12:05.078Z,3.96
2018-12-10T04:14:32.681Z,3.95
2018-12-10T04:17:00.225Z,3.97
2018-12-10T04:28:22.526Z,3.74
2018-12-10T04:30:50.075Z,3.75
2018-12-10T04:33:17.606Z,3.68
2018-12-10T04:35:45.233Z,3.70
2018-12-10T04:38:12.799Z,3.55
2018-12-10T04:40:40.404Z,3.42
2018-12-10T04:43:07.933Z,3.43
2018-12-10T04:45:35.568Z,3.41
2018-12-10T04:48:03.138Z,3.50
2018-12-10T04:50:30.742Z,3.54
2018-12-10T04:52:58.286Z,3.57
2018-12-10T04:55:25.916Z,3.70
2018-12-10T04:57:53.523Z,3.38
2018-12-10T05:00:21.076Z,3.32
2018-12-10T05:02:48.633Z,3.32
2018-12-10T05:05:16.203Z,3.26
2018-12-10T05:07:43.774Z,3.31
2018-12-10T05:10:11.362Z,3.37
2018-12-10T05:12:38.907Z,3.48
2018-12-10T05:15:06.502Z,3.47
2018-12-10T05:17:34.036Z,3.38
2018-12-10T05:20:01.579Z,3.55
2018-12-10T05:22:29.109Z,3.59
2018-12-10T05:25:00.491Z,3.33
2018-12-10T05:27:28.068Z,3.33
2018-12-10T05:29:55.858Z,3.43
2018-12-10T05:32:23.388Z,3.49
2018-12-10T05:34:50.988Z,3.22
2018-12-10T05:37:18.771Z,3.22
2018-12-10T05:39:46.443Z,3.25
2018-12-10T05:42:14.418Z,3.29
2018-12-10T05:44:42.038Z,3.24
2018-12-10T05:47:09.566Z,3.43
2018-12-10T05:49:37.129Z,3.32
2018-12-10T05:52:04.820Z,3.39
2018-12-10T05:54:32.368Z,3.48
2018-12-10T05:56:59.922Z,3.51
2018-12-10T05:59:27.456Z,3.51
2018-12-10T06:01:55.072Z,3.51
2018-12-10T06:04:22.591Z,3.63
2018-12-10T06:06:50.160Z,3.46
2018-12-10T06:09:17.707Z,3.52
2018-12-10T06:11:45.487Z,3.58
2018-12-10T06:14:13.067Z,3.59
2018-12-10T06:16:40.624Z,3.77
2018-12-10T06:19:08.176Z,3.83
2018-12-10T06:21:35.729Z,3.72
2018-12-10T06:24:03.276Z,3.81
2018-12-10T06:26:30.852Z,3.68
2018-12-10T06:28:59.282Z,3.77
2018-12-10T06:31:26.854Z,3.78
2018-12-10T06:33:54.407Z,3.79
2018-12-10T06:36:21.965Z,3.72
2018-12-10T06:38:49.496Z,3.69
2018-12-10T06:41:17.052Z,3.59
2018-12-10T06:43:44.595Z,3.64
2018-12-10T06:46:12.321Z,3.59
2018-12-10T06:48:39.873Z,3.57
2018-12-10T06:51:07.433Z,3.56
2018-12-10T06:53:34.978Z,3.52
2018-12-10T06:56:02.531Z,3.53
2018-12-10T06:58:30.059Z,3.45
2018-12-10T07:00:57.624Z,3.45
2018-12-10T07:03:25.161Z,3.33
2018-12-10T07:05:52.725Z,3.44
2018-12-10T07:08:20.240Z,3.46
2018-12-10T07:10:47.824Z,3.49
2018-12-10T07:13:15.523Z,3.39
2018-12-10T07:15:43.111Z,3.36
2018-12-10T07:18:10.632Z,3.35
2018-12-10T07:20:38.242Z,3.38
2018-12-10T07:23:05.857Z,3.40
2018-12-10T07:25:34.656Z,3.48
2018-12-10T07:28:02.663Z,3.39
2018-12-10T07:30:30.255Z,3.40
2018-12-10T07:32:57.843Z,3.54
2018-12-10T07:35:25.392Z,3.45
2018-12-10T07:37:52.974Z,3.47
2018-12-10T07:40:20.562Z,3.44
2018-12-10T07:42:48.103Z,3.40
2018-12-10T07:45:15.636Z,3.45
2018-12-10T07:47:43.204Z,3.47
2018-12-10T07:50:10.815Z,3.49
2018-12-10T07:52:38.418Z,3.47
2018-12-10T07:55:05.954Z,3.51
2018-12-10T07:57:33.540Z,3.61
2018-12-10T08:00:01.077Z,3.62
2018-12-10T08:02:28.632Z,3.58
2018-12-10T08:04:56.164Z,3.61
2018-12-10T08:07:23.833Z,3.70
2018-12-10T08:10:02.632Z,3.67
2018-12-10T08:12:31.382Z,3.67
2018-12-10T08:14:59.046Z,3.66
2018-12-10T08:17:26.640Z,3.66
2018-12-10T08:19:55.804Z,3.75
2018-12-10T08:22:23.565Z,3.72
2018-12-10T08:24:51.652Z,3.75
2018-12-10T08:27:19.643Z,3.91
2018-12-10T08:29:47.568Z,4.01
2018-12-10T08:32:16.085Z,4.04
2018-12-10T08:34:43.848Z,4.02
2018-12-10T08:37:11.500Z,4.07
2018-12-10T08:39:39.555Z,4.17
2018-12-10T08:42:08.708Z,4.18
2018-12-10T08:44:36.929Z,4.15
2018-12-10T08:47:04.584Z,4.22
2018-12-10T08:49:32.256Z,4.16
2018-12-10T08:52:00.839Z,4.14
2018-12-10T08:54:28.703Z,4.19
2018-12-10T08:56:56.324Z,4.18
2018-12-10T08:59:25.196Z,4.21
2018-12-10T09:01:52.813Z,4.23
2018-12-10T09:04:20.468Z,4.28
2018-12-10T09:06:48.003Z,4.34
2018-12-10T09:09:15.753Z,4.46
2018-12-10T09:11:43.353Z,4.55
2018-12-10T09:14:10.971Z,4.59
2018-12-10T09:16:38.599Z,4.67
2018-12-10T09:19:06.187Z,4.71
2018-12-10T09:21:33.728Z,4.73
2018-12-10T09:24:01.310Z,4.85
2018-12-10T09:26:28.831Z,4.86
2018-12-10T09:28:56.427Z,4.86
2018-12-10T09:31:23.985Z,4.87
2018-12-10T09:33:51.570Z,4.90
2018-12-10T09:36:19.125Z,5.01
2018-12-10T09:38:47.003Z,5.10
2018-12-10T09:41:14.824Z,5.08
2018-12-10T09:43:42.385Z,5.16
2018-12-10T09:46:09.970Z,5.21
2018-12-10T09:48:37.607Z,5.23
2018-12-10T09:51:05.170Z,5.27
2018-12-10T09:53:32.739Z,5.28
2018-12-10T09:56:00.297Z,5.40
2018-12-10T09:58:28.025Z,5.38
2018-12-10T10:00:55.639Z,5.46
2018-12-10T10:03:23.167Z,5.39
2018-12-10T10:05:50.736Z,5.48
2018-12-10T10:08:18.311Z,5.44
2018-12-10T10:10:45.905Z,5.49
2018-12-10T10:13:13.439Z,5.50
2018-12-10T10:15:41.043Z,5.51
2018-12-10T10:18:08.562Z,5.57
2018-12-10T10:20:36.143Z,5.61
2018-12-10T10:23:44.099Z,5.66
2018-12-10T10:26:11.696Z,5.75
2018-12-10T10:28:39.222Z,5.81
2018-12-10T10:31:06.767Z,5.82
2018-12-10T10:33:34.295Z,5.78
2018-12-10T10:36:01.867Z,5.90
2018-12-10T10:38:30.034Z,5.91
2018-12-10T10:40:57.840Z,5.88
2018-12-10T10:43:25.517Z,5.81
2018-12-10T10:45:53.090Z,5.83
2018-12-10T10:48:20.615Z,5.86
2018-12-10T10:50:48.352Z,5.85
2018-12-10T10:53:15.898Z,5.90
2018-12-10T10:55:43.457Z,6.00
2018-12-10T10:58:10.967Z,6.05
2018-12-10T11:00:44.080Z,6.09
2018-12-10T11:06:07.473Z,6.14
2018-12-10T11:08:35.068Z,6.09
2018-12-10T11:11:02.728Z,6.06
2018-12-10T11:13:30.248Z,6.08
2018-12-10T11:15:58.419Z,6.15
2018-12-10T11:18:25.982Z,6.32
2018-12-10T11:20:53.660Z,6.44
2018-12-10T11:23:21.198Z,6.38
2018-12-10T11:25:50.056Z,6.32
2018-12-10T11:28:17.613Z,6.29
2018-12-10T11:30:45.229Z,6.41
2018-12-10T11:33:12.776Z,6.46
2018-12-10T11:35:40.351Z,6.48
2018-12-10T11:38:07.965Z,6.50
2018-12-10T11:40:35.577Z,6.47
2018-12-10T11:43:03.114Z,6.51
2018-12-10T11:45:30.683Z,6.55
2018-12-10T11:47:58.234Z,6.48
2018-12-10T11:50:25.794Z,6.55
2018-12-10T11:52:53.334Z,6.24
2018-12-10T11:55:20.992Z,6.27
2018-12-10T11:57:48.532Z,6.28
2018-12-10T12:00:16.093Z,6.43
2018-12-10T12:02:43.649Z,6.41
2018-12-10T12:05:11.166Z,6.45
2018-12-10T12:07:38.708Z,6.42
2018-12-10T12:10:06.723Z,6.39
2018-12-10T12:12:34.263Z,6.33
2018-12-10T12:15:01.881Z,6.32
2018-12-10T12:17:29.431Z,6.08
2018-12-10T12:19:56.941Z,5.89
2018-12-10T12:22:24.560Z,5.79
2018-12-10T12:24:52.361Z,5.71
2018-12-10T12:27:20.497Z,5.69
2018-12-10T12:29:48.405Z,5.63
2018-12-10T12:32:16.301Z,5.61
2018-12-10T12:34:43.998Z,5.60
2018-12-10T12:37:11.612Z,5.70
2018-12-10T12:39:39.133Z,5.72
2018-12-10T12:42:06.842Z,5.82
2018-12-10T12:44:34.567Z,5.87
2018-12-10T12:47:02.128Z,5.90
2018-12-10T12:49:30.161Z,5.93
2018-12-10T12:51:58.880Z,5.89
2018-12-10T12:54:26.504Z,5.87
2018-12-10T12:56:54.176Z,5.93
2018-12-10T12:59:22.001Z,6.03
2018-12-10T13:01:49.735Z,6.08
2018-12-10T13:04:17.317Z,6.15
2018-12-10T13:06:44.906Z,6.14
2018-12-10T13:09:12.761Z,6.22
2018-12-10T13:11:43.079Z,6.34
2018-12-10T13:14:11.337Z,6.45
2018-12-10T13:16:40.068Z,6.46
2018-12-10T13:19:08.420Z,6.47
2018-12-10T13:21:36.738Z,6.50
2018-12-10T13:24:05.645Z,6.26
2018-12-10T13:26:33.792Z,6.54
2018-12-10T13:29:01.786Z,6.55
2018-12-10T13:31:30.654Z,6.70
2018-12-10T13:33:58.383Z,6.70
2018-12-10T13:36:29.123Z,6.71
2018-12-10T13:38:57.807Z,6.83
2018-12-10T13:41:26.521Z,6.84
2018-12-10T13:43:54.598Z,6.76
2018-12-10T13:46:22.859Z,6.72
2018-12-10T13:48:52.777Z,6.80
2018-12-10T13:51:21.479Z,6.87
2018-12-10T13:53:49.325Z,6.81
2018-12-10T13:56:17.255Z,6.75
2018-12-10T13:58:44.949Z,6.71
2018-12-10T14:01:14.591Z,6.61
2018-12-10T14:03:43.604Z,6.64
2018-12-10T14:06:19.589Z,6.71
2018-12-10T14:08:54.346Z,6.78
2018-12-10T14:11:27.786Z,6.72
2018-12-10T14:14:02.181Z,6.70
2018-12-10T14:16:33.255Z,6.69
2018-12-10T14:19:01.080Z,6.70
2018-12-10T14:21:29.498Z,6.65
2018-12-10T14:23:59.846Z,6.69
2018-12-10T14:26:29.587Z,6.69
2018-12-10T14:28:57.224Z,6.68
2018-12-10T14:31:27.466Z,6.60
2018-12-10T14:33:57.932Z,6.63
2018-12-10T14:36:26.006Z,6.54
2018-12-10T14:38:54.165Z,6.48
2018-12-10T14:41:25.858Z,6.48
2018-12-10T14:43:57.378Z,6.49
2018-12-10T14:46:27.117Z,6.46
2018-12-10T14:48:56.337Z,6.46
2018-12-10T14:51:26.644Z,6.45
2018-12-10T14:53:58.081Z,6.42
2018-12-10T14:56:25.919Z,6.42
2018-12-10T14:58:53.629Z,6.44
2018-12-10T15:01:21.824Z,6.33
2018-12-10T15:03:49.759Z,6.21
2018-12-10T15:06:19.127Z,6.17
2018-12-10T15:08:47.131Z,6.15
2018-12-10T15:11:18.177Z,6.02
2018-12-10T15:13:45.928Z,5.99
2018-12-10T15:16:13.523Z,6.00
2018-12-10T15:18:41.718Z,5.88
2018-12-10T15:21:10.729Z,5.90
2018-12-10T15:23:39.644Z,5.86
2018-12-10T15:26:07.303Z,5.81
2018-12-10T15:28:38.321Z,5.80
2018-12-10T15:31:06.423Z,5.74
2018-12-10T15:33:34.747Z,5.69
2018-12-10T15:36:03.282Z,5.69
2018-12-10T15:38:30.933Z,5.64
2018-12-10T15:40:59.093Z,5.60
2018-12-10T15:43:26.906Z,5.60
2018-12-10T15:45:55.113Z,5.52
2018-12-10T15:48:23.229Z,5.54
2018-12-10T15:50:51.451Z,5.50
2018-12-10T15:53:19.463Z,5.51
2018-12-10T15:55:47.209Z,5.45
2018-12-10T15:58:14.823Z,5.49
2018-12-10T16:00:42.394Z,5.37
2018-12-10T16:03:10.003Z,5.37
2018-12-10T16:05:41.110Z,5.42
2018-12-10T16:08:09.154Z,5.37
2018-12-10T16:10:37.213Z,5.44
2018-12-10T16:13:05.586Z,5.47
2018-12-10T16:15:33.743Z,5.33
2018-12-10T16:18:02.096Z,5.40
2018-12-10T16:20:30.231Z,5.40
2018-12-10T16:22:59.148Z,5.43
2018-12-10T16:25:27.662Z,5.33
2018-12-10T16:27:55.672Z,5.37
2018-12-10T16:30:25.234Z,5.37
2018-12-10T16:32:53.957Z,5.38
2018-12-10T16:35:21.916Z,5.29
2018-12-10T16:37:49.679Z,5.30
2018-12-10T16:40:17.291Z,5.24
2018-12-10T16:42:44.975Z,5.27
2018-12-10T16:45:12.943Z,5.23
2018-12-10T16:47:41.606Z,5.26
2018-12-10T16:50:09.470Z,5.36
2018-12-10T16:52:37.093Z,5.40
2018-12-10T16:55:05.875Z,5.30
2018-12-10T16:57:33.434Z,5.34
2018-12-10T17:00:01.330Z,5.41
2018-12-10T17:02:28.990Z,5.42
2018-12-10T17:04:56.897Z,5.47
2018-12-10T17:07:25.475Z,5.43
2018-12-10T17:09:53.192Z,5.32
2018-12-10T17:12:20.819Z,5.33
2018-12-10T17:14:48.537Z,5.34
2018-12-10T17:17:16.198Z,5.39
2018-12-10T17:19:43.944Z,5.34
2018-12-10T17:22:11.544Z,5.25
2018-12-10T17:24:39.176Z,5.25
2018-12-10T17:27:06.760Z,5.28
2018-12-10T17:29:36.586Z,5.17
2018-12-10T17:32:04.532Z,5.18
2018-12-10T17:34:33.321Z,5.06
2018-12-10T17:37:01.075Z,5.06
2018-12-10T17:39:29.136Z,5.06
2018-12-10T17:41:56.822Z,4.93
2018-12-10T17:44:24.549Z,4.93
2018-12-10T17:46:52.326Z,4.90
2018-12-10T17:49:20.501Z,4.98
2018-12-10T17:51:48.249Z,4.98
2018-12-10T17:54:15.976Z,4.85
2018-12-10T17:56:43.599Z,4.75
2018-12-10T17:59:11.211Z,4.74
2018-12-10T18:01:38.805Z,4.87
2018-12-10T18:04:06.373Z,4.88
2018-12-10T18:06:33.951Z,4.80
2018-12-10T18:09:01.543Z,4.83
2018-12-10T18:11:29.113Z,4.75
2018-12-10T18:13:56.780Z,4.78
2018-12-10T18:16:24.415Z,4.88
2018-12-10T18:18:52.106Z,4.92
2018-12-10T18:21:19.945Z,4.81
2018-12-10T18:23:47.525Z,4.91
2018-12-10T18:26:15.160Z,4.90
2018-12-10T18:28:42.837Z,4.90
2018-12-10T18:31:10.507Z,4.96
2018-12-10T18:33:38.499Z,4.90
2018-12-10T18:36:06.368Z,4.98
2018-12-10T18:38:34.162Z,4.89
2018-12-10T18:41:01.995Z,4.91
2018-12-10T18:43:29.747Z,4.94
2018-12-10T18:45:58.124Z,5.03
2018-12-10T18:48:25.661Z,5.03
2018-12-10T18:50:53.260Z,5.04
2018-12-10T18:53:20.884Z,5.08
2018-12-10T18:55:48.464Z,5.14
2018-12-10T18:58:16.001Z,5.17
2018-12-10T19:00:43.578Z,5.12
2018-12-10T19:03:11.119Z,5.11
2018-12-10T19:05:38.719Z,5.08
2018-12-10T19:08:06.291Z,5.08
2018-12-10T19:10:34.053Z,5.00
2018-12-10T19:13:01.807Z,4.94
2018-12-10T19:15:29.393Z,4.93
2018-12-10T19:17:56.978Z,4.89
2018-12-10T19:20:24.554Z,4.96
2018-12-10T19:22:52.097Z,4.96
2018-12-10T19:25:20.909Z,4.93
2018-12-10T19:27:48.511Z,4.95
2018-12-10T19:30:16.424Z,4.99
2018-12-10T19:32:43.951Z,5.00
2018-12-10T19:35:11.523Z,4.90
2018-12-10T19:37:40.082Z,4.92
2018-12-10T19:40:07.791Z,4.93
2018-12-10T19:42:35.436Z,4.88
2018-12-10T19:45:03.685Z,4.84
2018-12-10T19:47:31.421Z,4.80
2018-12-10T19:49:59.075Z,4.74
2018-12-10T19:52:27.982Z,4.61
2018-12-10T19:54:55.611Z,4.63
2018-12-10T19:57:23.731Z,4.53
2018-12-10T19:59:51.485Z,4.55
2018-12-10T20:02:19.235Z,4.46
2018-12-10T20:04:47.236Z,4.44
2018-12-10T20:07:15.684Z,4.44
2018-12-10T20:09:56.530Z,4.46
2018-12-10T20:12:24.209Z,4.47
2018-12-10T20:14:52.072Z,4.43
2018-12-10T20:17:20.542Z,4.42
2018-12-10T20:19:48.142Z,4.40
2018-12-10T20:22:16.046Z,4.41
2018-12-10T20:24:43.710Z,4.44
2018-12-10T20:27:15.350Z,4.43
2018-12-10T20:29:44.016Z,4.48
2018-12-10T20:32:12.758Z,4.49
2018-12-10T20:34:40.412Z,4.51
2018-12-10T20:37:08.091Z,4.46
2018-12-10T20:39:35.766Z,4.37
2018-12-10T20:42:04.251Z,4.32
2018-12-10T20:44:32.618Z,4.23
2018-12-10T20:47:00.678Z,4.21
2018-12-10T20:49:28.255Z,4.09
2018-12-10T20:51:56.151Z,4.18
2018-12-10T20:54:23.735Z,4.17
2018-12-10T20:56:51.317Z,4.16
2018-12-10T20:59:18.972Z,4.06
2018-12-10T21:01:46.857Z,4.05
2018-12-10T21:04:14.388Z,4.04
2018-12-10T21:06:41.984Z,4.02
2018-12-10T21:09:09.511Z,4.02
2018-12-10T21:11:37.174Z,3.94
2018-12-10T21:14:04.898Z,3.73
2018-12-10T21:16:32.568Z,3.78
2018-12-10T21:19:00.166Z,3.82
2018-12-10T21:21:27.738Z,3.69
2018-12-10T21:23:55.459Z,3.77
2018-12-10T21:26:23.112Z,3.70
2018-12-10T21:28:50.680Z,3.60
2018-12-10T21:31:18.234Z,3.62
2018-12-10T21:33:45.877Z,3.69
2018-12-10T21:36:13.407Z,3.58
2018-12-10T21:38:45.436Z,3.52
2018-12-10T21:41:11.047Z,3.48
2018-12-10T21:43:39.065Z,3.61
2018-12-10T21:46:06.777Z,3.45
2018-12-10T21:48:34.404Z,3.49
2018-12-10T21:51:02.105Z,3.02
2018-12-10T21:53:30.452Z,3.12
2018-12-10T21:55:58.056Z,3.22
2018-12-10T21:58:25.688Z,3.14
2018-12-10T22:00:53.567Z,3.10
2018-12-10T22:03:22.092Z,3.07
2018-12-10T22:05:50.188Z,3.02
2018-12-10T22:08:18.445Z,2.98
2018-12-10T22:10:47.136Z,2.87
2018-12-10T22:13:14.771Z,2.79
2018-12-10T22:15:42.723Z,2.73
2018-12-10T22:18:10.967Z,2.93
2018-12-10T22:20:38.547Z,3.01
2018-12-10T22:23:06.283Z,3.10
2018-12-10T22:25:34.395Z,3.22
2018-12-10T22:28:02.034Z,3.15
2018-12-10T22:30:30.093Z,3.15
2018-12-10T22:32:58.018Z,3.12
2018-12-10T22:35:25.955Z,2.97
2018-12-10T22:37:53.716Z,2.90
2018-12-10T22:40:22.135Z,2.89
2018-12-10T22:42:49.772Z,2.80
2018-12-10T22:45:17.472Z,2.76
2018-12-10T22:47:45.051Z,2.66
2018-12-10T22:50:12.693Z,2.55
2018-12-10T22:52:40.231Z,2.74
2018-12-10T22:55:08.439Z,2.72
2018-12-10T22:57:36.273Z,2.46
2018-12-10T23:00:07.460Z,2.43
2018-12-10T23:02:35.255Z,2.53
2018-12-10T23:05:03.123Z,1.84
2018-12-10T23:07:32.253Z,1.73
2018-12-10T23:10:00.269Z,1.96
2018-12-10T23:12:28.049Z,1.89
2018-12-10T23:14:55.720Z,1.79
2018-12-10T23:17:23.528Z,1.83
2018-12-10T23:19:51.386Z,1.95
2018-12-10T23:22:19.589Z,1.92
2018-12-10T23:24:48.178Z,1.95
2018-12-10T23:27:15.970Z,1.93
2018-12-10T23:29:43.864Z,2.02
2018-12-10T23:32:11.664Z,2.13
2018-12-10T23:34:39.228Z,1.81
2018-12-10T23:37:10.072Z,1.98
2018-12-10T23:39:38.536Z,1.92
2018-12-10T23:42:06.392Z,1.90
2018-12-10T23:47:35.531Z,1.71
2018-12-10T23:50:04.524Z,1.88
2018-12-10T23:52:34.806Z,1.78
2018-12-10T23:55:02.842Z,1.77
2018-12-10T23:57:32.727Z,1.55
